Time;durP1;ratioP1;P1;durP2;ratioP2;P2;SDS_P1;SDS_P2;PMS_P1;PMS_P2;Temp;Humidity;BMP_temperature;BMP_pressure;BME280_temperature;BME280_humidity;BME280_pressure;Samples;Min_cycle;Max_cycle;Signal;HPM_P1;HPM_P2
2023/04/24 00:01:00;;;;;;;6.43;1.90;;;11.20;99.90;;;;;;4213123;28;20136;-56
2023/04/24 00:03:03;;;;;;;4.13;1.60;;;11.20;99.90;;;;;;4214556;28;20064;-57
2023/04/24 00:05:05;;;;;;;7.30;1.70;;;11.20;99.90;;;;;;4214669;28;20036;-58
2023/04/24 00:07:09;;;;;;;6.30;1.75;;;11.10;99.90;;;;;;4214386;28;20040;-57
2023/04/24 00:09:11;;;;;;;5.55;1.80;;;11.10;99.90;;;;;;4214943;28;20044;-56
2023/04/24 00:11:13;;;;;;;4.50;1.70;;;11.10;99.90;;;;;;4214105;28;20048;-54
2023/04/24 00:13:15;;;;;;;5.30;1.70;;;11.10;99.90;;;;;;4214657;28;20044;-58
2023/04/24 00:15:17;;;;;;;4.57;1.60;;;11.10;99.90;;;;;;4214623;28;20131;-54
2023/04/24 00:17:20;;;;;;;3.20;1.65;;;11.10;99.90;;;;;;4214258;28;20094;-58
2023/04/24 00:19:22;;;;;;;7.70;2.42;;;11.10;99.90;;;;;;4213942;28;20154;-55
2023/04/24 00:21:27;;;;;;;6.40;2.03;;;11.10;99.90;;;;;;4212629;28;20047;-55
2023/04/24 00:23:30;;;;;;;5.63;2.10;;;11.20;99.90;;;;;;4213738;28;20094;-56
2023/04/24 00:25:32;;;;;;;12.27;2.45;;;11.20;99.90;;;;;;4213480;28;20052;-56
2023/04/24 00:27:36;;;;;;;7.38;1.92;;;11.20;99.90;;;;;;4213627;28;20048;-55
2023/04/24 00:29:39;;;;;;;7.85;2.75;;;11.20;99.90;;;;;;4213341;28;20067;-56
2023/04/24 00:31:41;;;;;;;8.43;1.85;;;11.20;99.90;;;;;;4212442;28;20044;-56
2023/04/24 00:33:43;;;;;;;11.25;2.47;;;11.10;99.90;;;;;;4213922;28;20408;-56
2023/04/24 00:35:47;;;;;;;7.67;2.00;;;11.10;99.90;;;;;;4213429;28;20056;-55
2023/04/24 00:37:49;;;;;;;7.97;2.25;;;11.10;99.90;;;;;;4213598;28;20444;-55
2023/04/24 00:39:53;;;;;;;5.50;2.13;;;11.10;99.90;;;;;;4213321;28;20067;-56
2023/04/24 00:41:59;;;;;;;6.00;2.17;;;11.10;99.90;;;;;;4214915;28;20072;-57
2023/04/24 00:44:01;;;;;;;7.25;2.60;;;11.00;99.90;;;;;;4215544;28;20058;-59
2023/04/24 00:46:03;;;;;;;9.63;2.50;;;10.90;99.90;;;;;;4215056;28;20464;-55
2023/04/24 00:48:07;;;;;;;9.05;2.40;;;10.90;99.90;;;;;;4213704;28;20105;-55
2023/04/24 00:50:11;;;;;;;5.57;1.95;;;10.80;99.90;;;;;;4212618;28;20044;-55
2023/04/24 00:52:17;;;;;;;9.95;2.63;;;10.90;99.90;;;;;;4213407;28;20401;-53
2023/04/24 00:54:20;;;;;;;7.55;2.15;;;10.90;99.90;;;;;;4213467;28;20055;-53
2023/04/24 00:56:23;;;;;;;8.63;2.42;;;10.80;99.90;;;;;;4214872;28;20417;-53
2023/04/24 00:58:28;;;;;;;5.85;1.90;;;10.80;99.90;;;;;;4215914;28;20067;-54
2023/04/24 01:00:30;;;;;;;6.25;2.10;;;10.90;99.90;;;;;;4216210;28;20120;-53
2023/04/24 01:02:34;;;;;;;9.70;2.53;;;10.90;99.90;;;;;;4216925;28;20082;-53
2023/04/24 01:04:37;;;;;;;8.77;2.30;;;11.00;99.90;;;;;;4216477;28;20437;-54
2023/04/24 01:06:40;;;;;;;8.27;2.33;;;10.90;99.90;;;;;;4216622;28;20036;-54
2023/04/24 01:08:43;;;;;;;7.20;2.25;;;10.90;99.90;;;;;;4216570;28;20071;-52
2023/04/24 01:10:46;;;;;;;8.45;2.70;;;10.80;99.90;;;;;;4197764;28;20048;-54
2023/04/24 01:12:51;;;;;;;7.45;2.53;;;10.90;99.90;;;;;;4216788;28;20442;-56
2023/04/24 01:14:54;;;;;;;9.65;2.42;;;11.00;99.90;;;;;;4216818;28;20054;-62
2023/04/24 01:16:57;;;;;;;9.48;2.42;;;10.90;99.90;;;;;;4217411;28;20659;-56
2023/04/24 01:18:59;;;;;;;8.85;2.45;;;10.80;99.90;;;;;;4217154;28;20504;-59
2023/04/24 01:21:04;;;;;;;9.98;2.50;;;10.80;99.90;;;;;;4216262;28;20090;-56
2023/04/24 01:23:08;;;;;;;10.88;2.08;;;10.70;99.90;;;;;;4216354;28;20489;-55
2023/04/24 01:25:10;;;;;;;8.48;2.17;;;10.60;99.90;;;;;;4217591;28;20040;-58
2023/04/24 01:27:12;;;;;;;14.48;2.60;;;10.60;99.90;;;;;;4216730;28;20043;-57
2023/04/24 01:29:14;;;;;;;10.32;2.58;;;10.60;99.90;;;;;;4216355;28;20066;-55
2023/04/24 01:31:16;;;;;;;7.60;2.15;;;10.60;99.90;;;;;;4215577;28;20051;-55
2023/04/24 01:33:20;;;;;;;7.75;2.00;;;10.60;99.90;;;;;;4216187;28;20428;-55
2023/04/24 01:35:22;;;;;;;10.52;2.70;;;10.60;99.90;;;;;;4216116;28;20048;-55
2023/04/24 01:37:26;;;;;;;8.95;2.70;;;10.60;99.90;;;;;;4216131;28;20048;-56
2023/04/24 01:39:30;;;;;;;14.52;2.95;;;10.70;99.90;;;;;;4216326;28;20056;-55
2023/04/24 01:41:32;;;;;;;7.35;2.33;;;10.70;99.90;;;;;;4215201;28;20044;-56
2023/04/24 01:43:34;;;;;;;10.07;2.75;;;10.70;99.90;;;;;;4215981;28;20043;-55
2023/04/24 01:45:36;;;;;;;9.45;2.67;;;10.70;99.90;;;;;;4216555;28;20428;-56
2023/04/24 01:47:39;;;;;;;10.45;2.70;;;10.70;99.90;;;;;;4216127;28;20169;-56
2023/04/24 01:49:41;;;;;;;10.07;2.80;;;10.70;99.90;;;;;;4197888;28;20045;-57
2023/04/24 01:51:44;;;;;;;10.20;2.65;;;10.60;99.90;;;;;;4215064;28;20068;-55
2023/04/24 01:53:46;;;;;;;11.80;3.28;;;10.60;99.90;;;;;;4215815;28;20477;-56
2023/04/24 01:55:50;;;;;;;10.10;2.38;;;10.50;99.90;;;;;;4216080;28;20079;-56
2023/04/24 01:57:54;;;;;;;11.85;2.97;;;10.50;99.90;;;;;;4215589;28;20102;-55
2023/04/24 01:59:56;;;;;;;6.50;1.98;;;10.50;99.90;;;;;;4215906;28;20460;-61
2023/04/24 02:01:58;;;;;;;8.57;2.35;;;10.60;99.90;;;;;;4214465;28;20048;-55
2023/04/24 02:04:00;;;;;;;9.43;2.20;;;10.60;99.90;;;;;;4215525;28;20048;-55
2023/04/24 02:06:03;;;;;;;9.63;2.85;;;10.50;99.90;;;;;;4197766;28;20056;-55
2023/04/24 02:08:05;;;;;;;11.75;2.33;;;10.40;99.90;;;;;;4215597;28;20072;-54
2023/04/24 02:10:08;;;;;;;14.20;3.17;;;10.50;99.90;;;;;;4197988;28;20131;-55
2023/04/24 02:12:12;;;;;;;12.00;3.03;;;10.50;99.90;;;;;;4214660;28;20048;-56
2023/04/24 02:14:14;;;;;;;10.80;2.55;;;10.50;99.90;;;;;;4215781;28;20048;-54
2023/04/24 02:16:18;;;;;;;13.73;2.85;;;10.50;99.90;;;;;;4215785;28;20139;-55
2023/04/24 02:18:20;;;;;;;10.15;2.80;;;10.60;99.90;;;;;;4215510;28;20048;-63
2023/04/24 02:20:22;;;;;;;12.88;2.75;;;10.50;99.90;;;;;;4197701;28;20047;-56
2023/04/24 02:22:26;;;;;;;9.70;2.47;;;10.60;99.90;;;;;;4215240;28;20435;-59
2023/04/24 02:24:29;;;;;;;9.63;2.30;;;10.70;99.90;;;;;;4215994;28;20437;-56
2023/04/24 02:26:31;;;;;;;9.80;2.63;;;10.70;99.90;;;;;;4215315;28;20053;-61
2023/04/24 02:28:35;;;;;;;9.93;2.50;;;10.70;99.90;;;;;;4215180;28;20478;-56
2023/04/24 02:30:37;;;;;;;4.97;2.35;;;10.80;99.90;;;;;;4214576;28;20048;-56
2023/04/24 02:32:39;;;;;;;10.20;2.88;;;10.80;99.90;;;;;;4214833;28;20071;-55
2023/04/24 02:34:41;;;;;;;9.30;2.47;;;10.80;99.90;;;;;;4197055;28;20044;-55
2023/04/24 02:36:43;;;;;;;12.90;2.70;;;10.80;99.90;;;;;;4215473;28;20078;-54
2023/04/24 02:38:45;;;;;;;10.13;2.20;;;10.80;99.90;;;;;;4215097;28;20044;-53
2023/04/24 02:40:48;;;;;;;11.80;2.60;;;10.80;99.90;;;;;;4214262;28;20801;-55
2023/04/24 02:42:49;;;;;;;7.03;2.17;;;10.80;99.90;;;;;;4215395;28;20094;-54
2023/04/24 02:44:53;;;;;;;6.18;2.10;;;10.90;99.90;;;;;;4215171;28;20047;-53
2023/04/24 02:46:55;;;;;;;12.23;2.55;;;10.90;99.90;;;;;;4214824;28;20090;-52
2023/04/24 02:48:57;;;;;;;8.27;2.30;;;10.80;99.90;;;;;;4215314;28;20457;-56
2023/04/24 02:51:00;;;;;;;10.23;2.83;;;10.90;99.90;;;;;;4214096;28;20098;-56
2023/04/24 02:53:02;;;;;;;8.82;2.53;;;10.90;99.90;;;;;;4214854;28;20044;-56
2023/04/24 02:55:05;;;;;;;8.63;2.25;;;10.90;99.90;;;;;;4197045;28;20510;-55
2023/04/24 02:57:07;;;;;;;9.30;2.55;;;10.80;99.90;;;;;;4214973;28;20481;-56
2023/04/24 02:59:10;;;;;;;8.35;2.22;;;10.70;99.90;;;;;;4197117;28;20104;-55
2023/04/24 03:01:13;;;;;;;14.13;2.75;;;10.80;99.90;;;;;;4195640;28;20314;-56
2023/04/24 03:03:15;;;;;;;11.73;2.70;;;11.00;99.90;;;;;;4214958;28;20106;-56
2023/04/24 03:05:17;;;;;;;9.85;2.63;;;10.90;99.90;;;;;;4215275;28;20619;-58
2023/04/24 03:07:20;;;;;;;8.45;2.13;;;11.00;99.90;;;;;;4215025;28;20118;-58
2023/04/24 03:09:23;;;;;;;10.27;2.55;;;10.90;99.90;;;;;;4216908;28;20050;-66
2023/04/24 03:11:25;;;;;;;7.97;2.60;;;11.00;99.90;;;;;;4197060;28;20142;-57
2023/04/24 03:13:27;;;;;;;10.02;2.55;;;10.90;99.90;;;;;;4214804;28;20047;-56
2023/04/24 03:15:29;;;;;;;8.40;2.17;;;11.00;99.90;;;;;;4214494;28;20094;-58
2023/04/24 03:17:33;;;;;;;12.13;2.65;;;11.00;99.90;;;;;;4214685;28;20043;-55
2023/04/24 03:19:35;;;;;;;7.05;2.50;;;10.90;99.90;;;;;;4214084;28;20455;-56
2023/04/24 03:21:40;;;;;;;11.82;2.67;;;10.80;99.90;;;;;;4214380;28;20048;-56
2023/04/24 03:23:42;;;;;;;;;;;10.90;99.90;;;;;;4216363;28;20044;-59
2023/04/24 03:25:44;;;;;;;9.13;2.30;;;10.90;99.90;;;;;;4215150;28;19923;-55
2023/04/24 03:27:49;;;;;;;7.82;2.40;;;10.90;99.90;;;;;;4214505;28;20478;-61
2023/04/24 03:29:55;;;;;;;8.90;2.50;;;11.00;99.90;;;;;;4214250;28;20051;-56
2023/04/24 03:31:57;;;;;;;10.23;2.28;;;11.00;99.90;;;;;;4213662;28;20052;-55
2023/04/24 03:34:01;;;;;;;8.98;2.72;;;10.90;99.90;;;;;;4214506;28;20048;-55
2023/04/24 03:36:04;;;;;;;7.57;2.10;;;10.90;99.90;;;;;;4214400;28;20086;-57
2023/04/24 03:38:06;;;;;;;10.65;2.70;;;11.00;99.90;;;;;;4214681;28;20048;-57
2023/04/24 03:40:09;;;;;;;12.63;2.03;;;11.00;99.90;;;;;;4215743;28;20207;-56
2023/04/24 03:42:11;;;;;;;7.97;2.42;;;11.00;99.90;;;;;;4214382;28;20455;-58
2023/04/24 03:44:13;;;;;;;11.73;2.60;;;11.10;99.90;;;;;;4196656;28;20490;-56
2023/04/24 03:46:16;;;;;;;8.52;2.70;;;11.00;99.90;;;;;;4214215;28;20044;-55
2023/04/24 03:48:18;;;;;;;9.45;2.75;;;11.10;99.90;;;;;;4214345;28;20127;-53
2023/04/24 03:50:21;;;;;;;13.45;2.55;;;11.00;99.90;;;;;;4196356;28;20048;-55
2023/04/24 03:52:24;;;;;;;10.25;2.20;;;11.00;99.90;;;;;;4195841;28;20044;-60
2023/04/24 03:54:26;;;;;;;12.93;2.55;;;11.00;99.90;;;;;;4215037;28;20059;-55
2023/04/24 03:56:29;;;;;;;9.10;2.60;;;11.00;99.90;;;;;;4214299;28;20066;-54
2023/04/24 03:58:31;;;;;;;7.80;2.20;;;11.10;99.90;;;;;;4213840;28;20102;-53
2023/04/24 04:00:34;;;;;;;8.50;2.38;;;11.00;99.90;;;;;;4213852;28;20129;-56
2023/04/24 04:02:36;;;;;;;8.23;2.78;;;11.00;99.90;;;;;;4213026;28;20054;-56
2023/04/24 04:04:38;;;;;;;8.52;2.65;;;11.00;99.90;;;;;;4213875;28;20490;-56
2023/04/24 04:06:43;;;;;;;10.57;2.72;;;11.00;99.90;;;;;;4213977;28;20074;-56
2023/04/24 04:08:46;;;;;;;7.53;2.25;;;10.90;99.90;;;;;;4214084;28;20050;-53
2023/04/24 04:10:50;;;;;;;10.07;3.03;;;10.80;99.90;;;;;;4213281;28;20058;-53
2023/04/24 04:12:52;;;;;;;12.27;2.88;;;10.90;99.90;;;;;;4213540;28;20048;-54
2023/04/24 04:14:54;;;;;;;8.30;2.45;;;10.90;99.90;;;;;;4213543;28;20486;-53
2023/04/24 04:16:58;;;;;;;7.97;2.45;;;10.90;99.90;;;;;;4196260;28;20069;-53
2023/04/24 04:19:00;;;;;;;6.78;2.67;;;10.90;99.90;;;;;;4213876;28;20044;-53
2023/04/24 04:21:03;;;;;;;8.13;2.30;;;10.90;99.90;;;;;;4212756;28;20048;-54
2023/04/24 04:23:06;;;;;;;9.40;2.90;;;10.80;99.90;;;;;;4213508;28;20044;-54
2023/04/24 04:25:08;;;;;;;12.48;2.70;;;10.90;99.90;;;;;;4213681;28;20048;-53
2023/04/24 04:27:10;;;;;;;11.07;2.63;;;10.90;99.90;;;;;;4213718;28;20067;-55
2023/04/24 04:29:13;;;;;;;11.90;3.28;;;10.80;99.90;;;;;;4213269;28;20525;-55
2023/04/24 04:31:16;;;;;;;8.73;2.38;;;10.80;99.90;;;;;;4212825;28;20047;-56
2023/04/24 04:33:18;;;;;;;12.73;2.83;;;10.80;99.90;;;;;;4213667;28;20051;-55
2023/04/24 04:35:20;;;;;;;6.38;2.00;;;10.70;99.90;;;;;;4213565;28;20093;-55
2023/04/24 04:37:25;;;;;;;9.73;2.42;;;10.70;99.90;;;;;;4213536;28;20044;-51
2023/04/24 04:39:31;;;;;;;6.28;2.42;;;10.70;99.90;;;;;;4195486;28;20053;-53
2023/04/24 04:41:34;;;;;;;10.90;2.80;;;10.80;99.90;;;;;;4212922;28;20047;-53
2023/04/24 04:43:39;;;;;;;11.10;2.87;;;10.70;99.90;;;;;;4213041;28;20066;-53
2023/04/24 04:45:42;;;;;;;10.68;2.50;;;10.80;99.90;;;;;;4213329;28;20453;-52
2023/04/24 04:47:45;;;;;;;9.07;3.10;;;10.70;99.90;;;;;;4213674;28;20070;-53
2023/04/24 04:49:48;;;;;;;11.82;2.72;;;10.80;99.90;;;;;;4213758;28;20043;-52
2023/04/24 04:51:50;;;;;;;8.30;2.40;;;10.70;99.90;;;;;;4213188;28;20500;-56
2023/04/24 04:53:52;;;;;;;9.77;3.08;;;10.70;99.90;;;;;;4214638;28;20114;-52
2023/04/24 04:55:56;;;;;;;8.20;3.28;;;10.60;99.90;;;;;;4214521;28;20428;-53
2023/04/24 04:58:00;;;;;;;11.83;3.37;;;10.60;99.90;;;;;;4195937;28;20081;-53
2023/04/24 05:00:04;;;;;;;10.05;3.05;;;10.60;99.90;;;;;;4213609;28;20448;-54
2023/04/24 05:02:06;;;;;;;6.55;2.58;;;10.70;99.90;;;;;;4212738;28;20108;-53
2023/04/24 05:04:08;;;;;;;7.57;2.88;;;10.80;99.90;;;;;;4213575;28;20048;-52
2023/04/24 05:06:11;;;;;;;16.00;3.35;;;10.70;99.90;;;;;;4213839;28;20048;-52
2023/04/24 05:08:13;;;;;;;7.43;2.63;;;10.80;99.90;;;;;;4213357;28;20107;-52
2023/04/24 05:10:30;;;;;;;9.77;3.50;;;10.80;99.90;;;;;;4195380;28;20153;-53
2023/04/24 05:12:33;;;;;;;8.85;3.30;;;10.70;99.90;;;;;;4212087;28;20378;-52
2023/04/24 05:14:35;;;;;;;10.05;3.10;;;10.50;99.90;;;;;;4213449;28;20169;-56
2023/04/24 05:16:37;;;;;;;13.35;3.05;;;10.50;99.90;;;;;;4213415;28;20052;-55
2023/04/24 05:18:40;;;;;;;11.43;2.95;;;10.60;99.90;;;;;;4213329;28;20040;-53
2023/04/24 05:20:43;;;;;;;11.90;3.03;;;10.60;99.90;;;;;;4213559;28;20059;-54
2023/04/24 05:22:46;;;;;;;10.32;3.22;;;10.50;99.90;;;;;;4212283;28;20434;-54
2023/04/24 05:24:48;;;;;;;7.30;2.78;;;10.50;99.90;;;;;;4213251;28;20051;-53
2023/04/24 05:26:50;;;;;;;7.28;2.92;;;10.60;99.90;;;;;;4212884;28;20045;-53
2023/04/24 05:28:53;;;;;;;9.68;2.78;;;10.70;99.90;;;;;;4213027;28;20154;-54
2023/04/24 05:30:55;;;;;;;9.48;3.33;;;10.80;99.90;;;;;;4213351;28;20448;-57
2023/04/24 05:32:58;;;;;;;6.68;3.50;;;10.80;99.90;;;;;;4212322;28;20509;-57
2023/04/24 05:35:03;;;;;;;13.27;3.83;;;10.70;99.90;;;;;;4213273;28;20060;-53
2023/04/24 05:37:08;;;;;;;8.93;3.15;;;10.80;99.90;;;;;;4213040;28;20438;-62
2023/04/24 05:39:10;;;;;;;;;;;10.80;99.90;;;;;;4213520;28;20048;-56
2023/04/24 05:41:12;;;;;;;9.13;3.00;;;10.90;99.90;;;;;;4211939;28;20181;-55
2023/04/24 05:43:14;;;;;;;11.63;3.67;;;10.80;99.90;;;;;;4215423;28;20493;-56
2023/04/24 05:45:18;;;;;;;9.30;3.10;;;10.90;99.90;;;;;;4215921;28;20102;-56
2023/04/24 05:47:21;;;;;;;9.05;3.90;;;11.00;99.90;;;;;;4216029;28;20052;-55
2023/04/24 05:49:23;;;;;;;6.32;2.88;;;11.00;99.90;;;;;;4216091;28;20123;-54
2023/04/24 05:51:25;;;;;;;12.02;4.00;;;11.10;99.90;;;;;;4215288;28;20044;-56
2023/04/24 05:53:28;;;;;;;13.73;4.28;;;11.10;99.90;;;;;;4215696;28;20505;-54
2023/04/24 05:55:31;;;;;;;12.02;3.72;;;11.20;99.90;;;;;;4215593;28;20044;-57
2023/04/24 05:57:33;;;;;;;10.60;3.63;;;11.20;99.90;;;;;;4215962;28;20048;-56
2023/04/24 05:59:38;;;;;;;10.25;3.90;;;11.10;99.90;;;;;;4216197;28;20046;-56
2023/04/24 06:01:44;;;;;;;17.00;4.68;;;11.20;99.90;;;;;;4214516;28;20489;-57
2023/04/24 06:03:46;;;;;;;10.43;3.95;;;11.30;99.90;;;;;;4215822;28;20044;-56
2023/04/24 06:05:50;;;;;;;13.40;4.43;;;11.50;99.90;;;;;;4215975;28;20052;-55
2023/04/24 06:07:52;;;;;;;13.40;4.32;;;11.40;99.90;;;;;;4215910;28;20198;-56
2023/04/24 06:09:54;;;;;;;16.10;4.35;;;11.40;99.90;;;;;;4215397;28;20047;-56
2023/04/24 06:11:58;;;;;;;13.55;4.22;;;11.40;99.90;;;;;;4214837;28;20109;-56
2023/04/24 06:14:00;;;;;;;13.20;3.83;;;11.30;99.90;;;;;;4215483;28;20048;-57
2023/04/24 06:16:02;;;;;;;10.35;3.97;;;11.30;99.90;;;;;;4215619;28;20058;-56
2023/04/24 06:18:06;;;;;;;7.40;3.47;;;11.40;99.90;;;;;;4215654;28;20421;-54
2023/04/24 06:20:10;;;;;;;12.70;4.80;;;11.30;99.90;;;;;;4215535;28;20123;-55
2023/04/24 06:22:12;;;;;;;12.18;3.83;;;11.30;99.90;;;;;;4214713;28;20351;-56
2023/04/24 06:24:16;;;;;;;15.43;3.92;;;11.40;99.90;;;;;;4215596;28;20044;-55
2023/04/24 06:26:18;;;;;;;17.35;4.13;;;11.40;99.90;;;;;;4215539;28;20123;-56
2023/04/24 06:28:20;;;;;;;12.82;4.55;;;11.50;99.90;;;;;;4215440;28;20071;-55
2023/04/24 06:30:22;;;;;;;12.55;4.28;;;11.50;99.90;;;;;;4197647;28;20090;-56
2023/04/24 06:32:25;;;;;;;12.20;4.32;;;11.60;99.90;;;;;;4214386;28;20044;-57
2023/04/24 06:34:30;;;;;;;12.80;3.58;;;11.70;99.90;;;;;;4215177;28;20113;-55
2023/04/24 06:36:34;;;;;;;13.18;5.55;;;11.70;99.90;;;;;;4215640;28;20485;-56
2023/04/24 06:38:36;;;;;;;12.10;4.00;;;11.70;99.90;;;;;;4215283;28;20066;-57
2023/04/24 06:40:38;;;;;;;13.63;4.82;;;11.80;99.90;;;;;;4215715;28;20123;-55
2023/04/24 06:42:42;;;;;;;13.45;4.32;;;11.90;99.90;;;;;;4214308;28;20121;-55
2023/04/24 06:44:45;;;;;;;15.73;4.90;;;11.90;99.90;;;;;;4215858;28;20118;-59
2023/04/24 06:46:47;;;;;;;9.75;4.47;;;12.10;99.90;;;;;;4216395;28;20085;-62
2023/04/24 06:48:49;;;;;;;9.02;4.70;;;12.00;99.90;;;;;;4216313;28;20059;-55
2023/04/24 06:50:52;;;;;;;12.00;4.43;;;11.90;99.90;;;;;;4215158;28;20051;-55
2023/04/24 06:52:54;;;;;;;10.23;4.60;;;12.10;99.90;;;;;;4213663;28;20374;-57
2023/04/24 06:55:00;;;;;;;12.68;4.15;;;12.20;99.90;;;;;;4214781;28;20358;-55
2023/04/24 06:57:02;;;;;;;14.38;4.68;;;12.30;99.90;;;;;;4215031;28;20122;-56
2023/04/24 06:59:05;;;;;;;12.88;4.55;;;12.30;99.90;;;;;;4215320;28;20161;-56
2023/04/24 07:01:07;;;;;;;11.98;4.93;;;12.40;99.90;;;;;;4214616;28;20043;-57
2023/04/24 07:03:09;;;;;;;9.38;4.30;;;12.40;99.90;;;;;;4213780;28;20048;-58
2023/04/24 07:05:12;;;;;;;14.27;4.80;;;12.40;99.90;;;;;;4214739;28;20547;-56
2023/04/24 07:07:16;;;;;;;11.52;4.53;;;12.40;99.90;;;;;;4214659;28;20135;-56
2023/04/24 07:09:18;;;;;;;11.35;5.10;;;12.50;99.90;;;;;;4214562;28;20127;-56
2023/04/24 07:11:21;;;;;;;13.70;5.82;;;12.60;99.90;;;;;;4214556;28;20044;-55
2023/04/24 07:13:24;;;;;;;13.13;5.80;;;12.60;99.80;;;;;;4213881;28;20486;-52
2023/04/24 07:15:26;;;;;;;10.73;5.07;;;12.60;99.90;;;;;;4214591;28;20044;-53
2023/04/24 07:17:28;;;;;;;11.65;5.30;;;12.50;99.80;;;;;;4214515;28;20125;-54
2023/04/24 07:19:30;;;;;;;11.57;5.97;;;12.60;99.70;;;;;;4214559;28;20058;-57
2023/04/24 07:21:32;;;;;;;14.55;6.03;;;12.60;99.90;;;;;;4213219;28;20043;-54
2023/04/24 07:23:36;;;;;;;11.40;5.60;;;12.70;99.70;;;;;;4214175;28;20131;-54
2023/04/24 07:25:39;;;;;;;10.85;5.38;;;12.70;99.40;;;;;;4214705;28;20051;-53
2023/04/24 07:27:41;;;;;;;14.30;6.07;;;12.80;99.80;;;;;;4214346;28;20051;-53
2023/04/24 07:29:43;;;;;;;10.15;5.03;;;12.90;99.50;;;;;;4214282;28;20075;-53
2023/04/24 07:31:46;;;;;;;11.50;5.68;;;13.00;99.80;;;;;;4213522;28;20044;-54
2023/04/24 07:33:48;;;;;;;12.13;6.13;;;13.10;99.50;;;;;;4214281;28;20130;-53
2023/04/24 07:35:50;;;;;;;13.73;6.32;;;13.20;99.40;;;;;;4196235;28;20051;-55
2023/04/24 07:37:53;;;;;;;12.68;6.18;;;13.20;99.50;;;;;;4213874;28;20101;-55
2023/04/24 07:39:57;;;;;;;12.15;5.97;;;13.10;99.00;;;;;;4213872;28;20493;-55
2023/04/24 07:41:59;;;;;;;12.82;6.00;;;12.90;99.10;;;;;;4213282;28;20417;-56
2023/04/24 07:44:01;;;;;;;11.02;6.05;;;13.00;99.10;;;;;;4196052;28;20514;-56
2023/04/24 07:46:03;;;;;;;14.50;6.53;;;13.10;99.20;;;;;;4214008;28;20127;-56
2023/04/24 07:48:08;;;;;;;9.57;6.43;;;13.00;99.00;;;;;;4214095;28;20076;-56
2023/04/24 07:50:12;;;;;;;13.65;5.53;;;13.10;99.10;;;;;;4214265;28;20055;-55
2023/04/24 07:52:14;;;;;;;12.23;6.28;;;13.20;99.40;;;;;;4213095;28;20522;-56
2023/04/24 07:54:16;;;;;;;17.88;6.93;;;13.10;99.40;;;;;;4214022;28;20404;-56
2023/04/24 07:56:20;;;;;;;15.98;6.22;;;13.20;99.20;;;;;;4214294;28;20056;-56
2023/04/24 07:58:22;;;;;;;16.52;6.00;;;13.20;99.30;;;;;;4213820;28;20048;-54
2023/04/24 08:00:25;;;;;;;11.63;5.65;;;13.20;99.20;;;;;;4213842;28;20047;-56
2023/04/24 08:02:27;;;;;;;13.30;6.50;;;13.30;99.40;;;;;;4212880;28;20047;-56
2023/04/24 08:04:29;;;;;;;13.63;5.90;;;13.30;98.90;;;;;;4213513;28;20067;-60
2023/04/24 08:06:32;;;;;;;13.95;6.50;;;13.30;99.30;;;;;;4213705;28;20094;-55
2023/04/24 08:08:34;;;;;;;11.95;7.25;;;13.30;99.10;;;;;;4213792;28;20094;-56
2023/04/24 08:10:36;;;;;;;18.58;7.10;;;13.30;99.00;;;;;;4196079;28;20052;-56
2023/04/24 08:12:40;;;;;;;11.10;7.53;;;13.40;99.10;;;;;;4212691;28;20043;-57
2023/04/24 08:14:42;;;;;;;12.18;7.55;;;13.20;98.70;;;;;;4213817;28;20052;-55
2023/04/24 08:16:44;;;;;;;10.75;7.07;;;13.40;98.80;;;;;;4213902;28;20048;-55
2023/04/24 08:18:47;;;;;;;13.82;6.70;;;13.70;97.80;;;;;;4213729;28;20535;-56
2023/04/24 08:20:49;;;;;;;12.68;7.45;;;13.90;98.00;;;;;;4213576;28;20048;-56
2023/04/24 08:22:51;;;;;;;16.58;8.13;;;14.10;97.70;;;;;;4213453;28;20511;-57
2023/04/24 08:24:53;;;;;;;14.35;7.18;;;14.10;97.00;;;;;;4214056;28;20054;-55
2023/04/24 08:26:56;;;;;;;10.40;6.80;;;14.30;97.80;;;;;;4213978;28;20374;-57
2023/04/24 08:29:01;;;;;;;16.15;6.95;;;14.60;97.60;;;;;;4213469;28;20083;-56
2023/04/24 08:31:06;;;;;;;14.98;6.75;;;14.50;96.50;;;;;;4213634;28;20097;-55
2023/04/24 08:33:09;;;;;;;13.35;7.35;;;14.50;96.60;;;;;;4212361;28;20101;-56
2023/04/24 08:35:11;;;;;;;11.23;6.82;;;14.40;96.90;;;;;;4213201;28;20044;-55
2023/04/24 08:37:13;;;;;;;9.80;6.35;;;14.60;97.30;;;;;;4213628;28;20048;-57
2023/04/24 08:39:17;;;;;;;16.63;8.18;;;14.60;96.60;;;;;;4213886;28;20044;-58
2023/04/24 08:41:19;;;;;;;12.63;7.20;;;14.50;96.80;;;;;;4213792;28;20059;-55
2023/04/24 08:43:22;;;;;;;11.15;6.43;;;14.30;96.10;;;;;;4212458;28;20152;-57
2023/04/24 08:45:26;;;;;;;19.08;6.55;;;14.20;96.90;;;;;;4213405;28;20124;-55
2023/04/24 08:47:29;;;;;;;10.35;6.18;;;14.40;97.00;;;;;;4213493;28;20052;-55
2023/04/24 08:49:32;;;;;;;12.75;6.50;;;14.30;97.00;;;;;;4212984;28;20654;-56
2023/04/24 08:51:37;;;;;;;14.32;7.38;;;14.30;97.00;;;;;;4213480;28;20048;-56
2023/04/24 08:53:40;;;;;;;;;;;14.40;96.60;;;;;;4212951;28;20054;-55
2023/04/24 08:55:45;;;;;;;10.27;6.20;;;14.30;96.90;;;;;;4213430;28;19920;-56
2023/04/24 08:57:52;;;;;;;16.17;7.18;;;14.30;97.40;;;;;;4213326;28;20087;-56
2023/04/24 08:59:55;;;;;;;13.32;8.23;;;14.40;96.90;;;;;;4213410;28;20070;-56
2023/04/24 09:02:01;;;;;;;13.50;7.45;;;14.40;97.40;;;;;;4212107;28;20079;-57
2023/04/24 09:04:03;;;;;;;11.60;6.00;;;14.50;97.30;;;;;;4212690;28;20159;-57
2023/04/24 09:06:09;;;;;;;13.95;7.80;;;14.50;97.00;;;;;;4213649;28;20504;-56
2023/04/24 09:08:13;;;;;;;;;;;14.60;97.10;;;;;;4213608;28;20062;-57
2023/04/24 09:10:15;;;;;;;12.40;7.38;;;14.50;97.10;;;;;;4213555;28;19927;-56
2023/04/24 09:12:18;;;;;;;17.63;8.52;;;14.40;96.80;;;;;;4212405;28;20044;-55
2023/04/24 09:14:20;;;;;;;13.98;5.13;;;14.50;96.70;;;;;;4214011;28;20044;-55
2023/04/24 09:16:24;;;;;;;11.85;6.07;;;14.70;97.10;;;;;;4214758;28;20098;-56
2023/04/24 09:18:27;;;;;;;11.95;6.40;;;15.00;96.40;;;;;;4217106;28;20444;-59
2023/04/24 09:20:30;;;;;;;9.77;5.93;;;15.00;95.70;;;;;;4200014;28;20499;-58
2023/04/24 09:22:32;;;;;;;10.30;5.28;;;15.20;95.50;;;;;;4216791;28;20154;-60
2023/04/24 09:24:35;;;;;;;8.30;5.53;;;15.40;95.20;;;;;;4216583;28;20127;-56
2023/04/24 09:26:39;;;;;;;9.95;5.70;;;15.20;95.20;;;;;;4216843;28;20246;-55
2023/04/24 09:28:42;;;;;;;9.43;5.50;;;15.10;95.00;;;;;;4217255;28;20052;-55
2023/04/24 09:30:44;;;;;;;8.52;5.15;;;15.20;95.30;;;;;;4216562;28;20048;-56
2023/04/24 09:32:46;;;;;;;8.07;5.00;;;15.30;95.40;;;;;;4215171;28;20048;-55
2023/04/24 09:35:04;;;;;;;8.50;5.55;;;15.40;94.90;;;;;;4216161;28;20115;-56
2023/04/24 09:37:06;;;;;;;11.57;7.20;;;15.30;94.70;;;;;;4216054;28;20121;-56
2023/04/24 09:39:10;;;;;;;14.27;7.20;;;15.30;94.30;;;;;;4215787;28;20477;-56
2023/04/24 09:41:14;;;;;;;9.83;6.73;;;15.00;94.70;;;;;;4216177;28;20036;-56
2023/04/24 09:43:16;;;;;;;12.68;7.32;;;15.00;95.20;;;;;;4215245;28;20527;-55
2023/04/24 09:45:18;;;;;;;14.15;7.38;;;15.10;95.70;;;;;;4216474;28;20051;-56
2023/04/24 09:47:20;;;;;;;12.55;7.25;;;15.10;95.50;;;;;;4216284;28;20131;-55
2023/04/24 09:49:25;;;;;;;10.48;7.78;;;15.10;95.80;;;;;;4216562;28;20322;-56
2023/04/24 09:51:37;;;;;;;12.52;7.05;;;15.20;95.20;;;;;;4216794;28;20059;-65
2023/04/24 09:53:39;;;;;;;11.38;6.53;;;15.20;94.90;;;;;;4216297;28;20460;-63
2023/04/24 09:55:47;;;;;;;11.80;7.05;;;15.30;95.20;;;;;;4199425;28;20434;-56
2023/04/24 09:57:51;;;;;;;10.68;7.28;;;15.30;94.90;;;;;;4216756;28;20202;-58
2023/04/24 09:59:53;;;;;;;15.57;7.32;;;15.30;94.60;;;;;;4216075;28;20055;-58
2023/04/24 10:01:56;;;;;;;13.43;7.43;;;15.50;94.60;;;;;;4214839;28;20044;-55
2023/04/24 10:03:58;;;;;;;15.32;7.22;;;15.60;94.70;;;;;;4215518;28;20056;-55
2023/04/24 10:06:01;;;;;;;12.23;7.45;;;15.50;94.70;;;;;;4215756;28;20417;-56
2023/04/24 10:08:06;;;;;;;11.75;6.95;;;15.60;94.60;;;;;;4215860;28;20142;-55
2023/04/24 10:10:09;;;;;;;10.50;7.55;;;15.70;94.20;;;;;;4215757;28;20048;-56
2023/04/24 10:12:12;;;;;;;12.20;6.70;;;15.60;94.20;;;;;;4215048;28;20047;-56
2023/04/24 10:14:16;;;;;;;12.32;7.15;;;15.70;94.90;;;;;;4215419;28;20048;-55
2023/04/24 10:16:19;;;;;;;14.45;6.70;;;15.80;94.10;;;;;;4215485;28;20047;-55
2023/04/24 10:18:22;;;;;;;11.65;7.05;;;15.80;94.00;;;;;;4215627;28;20448;-55
2023/04/24 10:20:27;;;;;;;9.82;6.25;;;15.90;93.80;;;;;;4215409;28;20052;-55
2023/04/24 10:22:30;;;;;;;13.02;7.22;;;15.90;93.40;;;;;;4214663;28;20543;-55
2023/04/24 10:24:35;;;;;;;9.38;6.25;;;16.00;93.70;;;;;;4215463;28;20044;-55
2023/04/24 10:26:40;;;;;;;8.65;5.53;;;16.20;93.40;;;;;;4215553;28;20044;-55
2023/04/24 10:28:44;;;;;;;13.10;7.45;;;16.40;93.60;;;;;;4215214;28;20109;-56
2023/04/24 10:30:48;;;;;;;10.88;7.20;;;16.40;93.50;;;;;;4215203;28;20044;-55
2023/04/24 10:32:50;;;;;;;8.30;6.05;;;16.50;93.30;;;;;;4214573;28;20051;-56
2023/04/24 10:34:53;;;;;;;9.57;6.45;;;16.40;92.60;;;;;;4215082;28;20413;-55
2023/04/24 10:36:58;;;;;;;9.38;6.70;;;16.40;92.90;;;;;;4215131;28;20090;-55